Time;durP1;ratioP1;P1;durP2;ratioP2;P2;SDS_P1;SDS_P2;PMS_P1;PMS_P2;Temp;Humidity;BMP_temperature;BMP_pressure;BME280_temperature;BME280_humidity;BME280_pressure;Samples;Min_cycle;Max_cycle;Signal;HPM_P1;HPM_P2
2022/01/18 00:02:42;;;;;;;24.55;13.10;;;6.60;99.90;;;;;;5052546;28;20099;-56
2022/01/18 00:05:49;;;;;;;23.05;13.98;;;6.40;99.90;;;;;;5052449;28;20439;-54
2022/01/18 00:08:54;;;;;;;23.10;12.88;;;6.30;99.90;;;;;;5051665;28;20060;-56
2022/01/18 00:12:14;;;;;;;24.15;12.90;;;6.30;99.90;;;;;;5052211;28;20055;-56
2022/01/18 00:18:25;;;;;;;25.38;14.23;;;6.40;99.90;;;;;;5051569;28;20044;-53
2022/01/18 00:24:42;;;;;;;22.93;13.83;;;6.20;99.90;;;;;;5052084;28;20036;-53
2022/01/18 00:27:46;;;;;;;22.60;13.00;;;6.10;99.90;;;;;;5052193;28;20060;-54
2022/01/18 00:34:33;;;;;;;25.20;15.20;;;5.90;99.90;;;;;;5051353;28;20032;-52
2022/01/18 00:37:39;;;;;;;30.85;17.10;;;5.80;99.90;;;;;;5051001;28;20048;-54
2022/01/18 00:40:43;;;;;;;40.28;22.83;;;5.50;99.90;;;;;;5051792;28;20040;-54
2022/01/18 00:43:49;;;;;;;44.92;23.70;;;5.30;99.90;;;;;;5051332;28;20036;-53
2022/01/18 00:46:53;;;;;;;44.97;24.70;;;5.10;99.90;;;;;;5051710;28;20048;-53
2022/01/18 00:50:01;;;;;;;48.70;28.25;;;5.10;99.90;;;;;;5051253;28;20048;-56
2022/01/18 00:53:11;;;;;;;51.25;27.13;;;4.80;99.90;;;;;;5051333;28;20047;-56
2022/01/18 00:59:22;;;;;;;46.97;27.00;;;4.60;99.90;;;;;;5050664;28;20112;-55
2022/01/18 01:02:26;;;;;;;51.15;27.40;;;4.50;99.90;;;;;;5051766;28;20776;-56
2022/01/18 01:05:31;;;;;;;47.85;27.10;;;4.40;99.90;;;;;;5051379;28;20052;-54
2022/01/18 01:08:35;;;;;;;50.17;30.63;;;4.40;99.90;;;;;;5051113;28;20051;-56
2022/01/18 01:11:41;;;;;;;51.50;28.65;;;4.30;99.90;;;;;;5051461;28;20060;-56
2022/01/18 01:14:46;;;;;;;47.13;28.13;;;4.30;99.90;;;;;;5050167;28;20044;-56
2022/01/18 01:18:09;;;;;;;52.05;28.92;;;4.30;99.90;;;;;;5051673;28;20052;-56
2022/01/18 01:35:04;;;;;;;59.08;33.17;;;4.20;99.90;;;;;;5050118;28;19951;-56
2022/01/18 01:45:10;;;;;;;59.67;33.22;;;4.30;99.90;;;;;;5043977;28;19966;-55
2022/01/18 01:48:17;;;;;;;55.78;32.30;;;4.30;99.90;;;;;;5049813;28;20056;-53
2022/01/18 01:51:29;;;;;;;58.85;33.13;;;4.30;99.90;;;;;;5050585;28;20060;-53
2022/01/18 01:54:32;;;;;;;54.70;32.33;;;4.10;99.90;;;;;;5050404;28;20055;-55
2022/01/18 01:57:36;;;;;;;57.80;31.08;;;4.10;99.90;;;;;;5050588;28;20056;-56
2022/01/18 02:00:49;;;;;;;56.20;31.75;;;4.10;99.90;;;;;;5050326;28;20066;-52
2022/01/18 02:03:55;;;;;;;54.95;29.77;;;4.00;99.90;;;;;;5049566;28;20036;-56
2022/01/18 02:06:59;;;;;;;51.80;27.38;;;4.00;99.90;;;;;;5050054;28;20052;-53
2022/01/18 02:10:07;;;;;;;53.22;27.75;;;4.00;99.90;;;;;;5049409;28;20510;-55
2022/01/18 02:13:12;;;;;;;43.20;25.75;;;4.00;99.90;;;;;;5049981;28;20044;-52
2022/01/18 02:21:46;;;;;;;42.33;26.95;;;4.00;99.90;;;;;;5049505;28;20044;-53
2022/01/18 02:23:04;;;;;;;56.20;33.22;;;4.00;99.90;;;;;;5050014;28;20036;-56
2022/01/18 02:26:09;;;;;;;55.50;31.45;;;3.90;99.90;;;;;;5049538;28;20040;-54
2022/01/18 02:29:16;;;;;;;53.92;30.40;;;3.80;99.90;;;;;;5049254;28;20530;-54
2022/01/18 02:32:20;;;;;;;54.65;29.48;;;3.70;99.90;;;;;;5049495;28;20040;-55
2022/01/18 02:35:24;;;;;;;54.58;31.10;;;3.50;99.90;;;;;;5047769;28;20052;-54
2022/01/18 02:38:29;;;;;;;53.85;29.80;;;3.50;99.90;;;;;;5049214;28;20052;-55
2022/01/18 02:41:33;;;;;;;56.13;30.73;;;3.30;99.90;;;;;;5049435;28;20044;-51
2022/01/18 02:44:38;;;;;;;50.92;25.98;;;3.30;99.90;;;;;;5049258;28;20035;-52
2022/01/18 02:47:42;;;;;;;38.25;21.25;;;3.20;99.90;;;;;;5049490;28;20043;-55
2022/01/18 02:50:46;;;;;;;43.92;22.83;;;3.10;99.90;;;;;;5049371;28;20044;-54
2022/01/18 02:53:57;;;;;;;47.53;25.30;;;3.20;99.90;;;;;;5049639;28;20040;-54
2022/01/18 02:57:03;;;;;;;50.85;25.58;;;3.20;99.90;;;;;;5049093;28;20044;-56
2022/01/18 03:00:19;;;;;;;41.38;22.90;;;3.30;99.90;;;;;;5048532;28;20036;-56
2022/01/18 03:03:24;;;;;;;34.72;21.63;;;3.40;99.90;;;;;;5049603;28;20032;-55
2022/01/18 03:06:29;;;;;;;46.83;23.15;;;3.30;99.90;;;;;;5048664;28;20044;-54
2022/01/18 03:09:33;;;;;;;64.35;31.88;;;3.20;99.90;;;;;;5048783;28;20119;-55
2022/01/18 03:12:37;;;;;;;62.60;33.38;;;3.00;99.90;;;;;;5049234;28;20052;-56
2022/01/18 03:15:42;;;;;;;99.25;37.20;;;2.80;99.90;;;;;;5048682;28;20056;-56
2022/01/18 03:18:46;;;;;;;66.45;34.70;;;2.70;99.90;;;;;;5048323;28;20044;-55
2022/01/18 03:21:51;;;;;;;55.92;32.60;;;2.70;99.90;;;;;;5049159;28;20052;-53
2022/01/18 03:28:05;;;;;;;47.72;25.17;;;2.50;99.90;;;;;;5048654;28;20036;-55
2022/01/18 03:31:10;;;;;;;63.15;33.03;;;2.50;99.90;;;;;;5048480;28;20404;-55
2022/01/18 03:34:14;;;;;;;57.88;30.27;;;2.50;99.90;;;;;;5048849;28;20048;-54
2022/01/18 03:37:18;;;;;;;57.67;34.90;;;2.50;99.90;;;;;;5048507;28;20040;-56
2022/01/18 03:40:23;;;;;;;61.42;34.85;;;2.50;99.90;;;;;;5048272;28;20400;-55
2022/01/18 03:43:31;;;;;;;56.63;32.80;;;2.50;99.90;;;;;;5048950;28;20060;-57
2022/01/18 03:46:37;;;;;;;69.32;37.33;;;2.50;99.90;;;;;;5048543;28;20044;-57
2022/01/18 03:49:40;;;;;;;68.60;36.38;;;2.50;99.90;;;;;;5071840;22;20345;-69
2022/01/18 03:52:46;;;;;;;60.28;32.17;;;2.50;99.90;;;;;;5049436;28;20517;-69
2022/01/18 03:55:51;;;;;;;49.60;28.40;;;2.50;99.90;;;;;;5049459;28;20044;-69
2022/01/18 03:58:55;;;;;;;45.20;22.48;;;2.50;99.90;;;;;;5049111;28;20048;-70
2022/01/18 04:01:59;;;;;;;43.63;22.08;;;2.50;99.90;;;;;;5049485;28;20052;-69
2022/01/18 04:05:03;;;;;;;45.17;21.92;;;2.50;99.90;;;;;;5049204;28;20047;-69
2022/01/18 04:08:08;;;;;;;43.67;23.80;;;2.50;99.90;;;;;;5059886;28;20040;-69
2022/01/18 04:11:11;;;;;;;48.05;26.55;;;2.50;99.90;;;;;;5049779;28;20494;-69
2022/01/18 04:14:15;;;;;;;48.70;25.13;;;2.60;99.90;;;;;;5052975;28;20048;-69
2022/01/18 04:27:14;;;;;;;;;;;2.60;99.90;;;;;;5052982;28;20043;-69
2022/01/18 04:30:17;;;;;;;37.60;20.98;;;2.60;99.90;;;;;;5054230;28;19916;-69
2022/01/18 04:33:22;;;;;;;39.50;22.58;;;2.60;99.90;;;;;;5055149;28;20056;-69
2022/01/18 04:36:28;;;;;;;46.15;24.08;;;2.60;99.90;;;;;;5056325;28;20348;-69
2022/01/18 04:39:37;;;;;;;38.30;22.00;;;2.60;99.90;;;;;;5057297;28;20040;-69
2022/01/18 04:43:04;;;;;;;52.75;27.65;;;2.60;99.90;;;;;;5044190;28;20040;-68
2022/01/18 04:49:33;;;;;;;49.50;28.15;;;2.50;99.90;;;;;;5056742;28;20052;-68
2022/01/18 04:52:37;;;;;;;45.65;25.30;;;2.50;99.90;;;;;;5056067;28;20052;-68
2022/01/18 04:55:42;;;;;;;47.42;23.98;;;2.50;99.90;;;;;;5057163;28;20284;-68
2022/01/18 04:58:47;;;;;;;42.08;23.77;;;2.40;99.90;;;;;;5055692;28;20048;-67
2022/01/18 05:01:53;;;;;;;50.33;25.40;;;2.40;99.90;;;;;;5044357;28;20040;-68
2022/01/18 05:04:57;;;;;;;55.28;25.33;;;2.30;99.90;;;;;;5055153;28;20044;-68
2022/01/18 05:08:05;;;;;;;49.25;27.52;;;2.20;99.90;;;;;;5043303;28;20032;-68
2022/01/18 05:11:14;;;;;;;63.88;27.92;;;2.20;99.90;;;;;;5055667;28;20080;-68
2022/01/18 05:17:57;;;;;;;58.22;30.05;;;2.00;99.90;;;;;;5056252;28;20048;-68
2022/01/18 05:24:12;;;;;;;54.78;29.05;;;1.90;99.90;;;;;;5055809;28;20061;-68
2022/01/18 05:27:17;;;;;;;53.88;27.90;;;1.90;99.90;;;;;;5054976;28;20043;-68
2022/01/18 05:30:22;;;;;;;51.40;29.10;;;1.90;99.90;;;;;;5055064;28;20431;-68
2022/01/18 05:33:27;;;;;;;58.83;29.23;;;2.00;99.90;;;;;;5055639;28;20060;-67
2022/01/18 05:36:32;;;;;;;46.22;26.67;;;2.10;99.90;;;;;;5042354;28;20051;-70
2022/01/18 05:39:36;;;;;;;49.42;23.40;;;2.20;99.90;;;;;;5055613;28;20120;-68
2022/01/18 05:42:40;;;;;;;45.20;23.38;;;2.20;99.90;;;;;;5054995;28;20076;-68
2022/01/18 05:45:44;;;;;;;45.67;25.35;;;2.20;99.90;;;;;;5055516;28;20059;-67
2022/01/18 05:48:50;;;;;;;42.90;25.92;;;2.30;99.90;;;;;;5055186;28;20407;-68
2022/01/18 05:51:54;;;;;;;46.38;25.70;;;2.30;99.90;;;;;;5052259;28;20048;-68
2022/01/18 05:54:59;;;;;;;45.92;26.38;;;2.00;99.90;;;;;;5054295;28;20494;-68
2022/01/18 05:58:03;;;;;;;45.50;25.70;;;1.80;99.90;;;;;;5053128;28;20055;-68
2022/01/18 06:01:07;;;;;;;52.03;29.67;;;1.60;99.90;;;;;;5054713;28;20593;-68
2022/01/18 06:06:50;;;;;;;48.33;27.05;;;1.50;99.90;;;;;;5054686;28;20073;-67
2022/01/18 06:07:37;;;;;;;49.47;26.90;;;1.40;99.90;;;;;;5054660;28;20043;-68
2022/01/18 06:10:44;;;;;;;45.10;24.40;;;1.30;99.90;;;;;;5053474;28;20108;-68
2022/01/18 06:13:48;;;;;;;59.92;32.25;;;1.40;99.90;;;;;;5052469;28;20040;-68
2022/01/18 06:16:52;;;;;;;49.53;29.08;;;1.40;99.90;;;;;;5051987;28;20063;-68
2022/01/18 06:19:57;;;;;;;48.70;26.83;;;1.50;99.90;;;;;;5063748;28;20040;-70
2022/01/18 06:23:01;;;;;;;75.22;30.92;;;1.30;99.90;;;;;;5054183;28;20060;-70
2022/01/18 06:26:05;;;;;;;78.10;33.22;;;1.20;99.90;;;;;;5050766;28;20052;-70
2022/01/18 06:29:10;;;;;;;76.57;32.78;;;1.20;99.90;;;;;;5049699;28;20068;-70
2022/01/18 06:32:13;;;;;;;93.25;32.88;;;1.10;99.90;;;;;;5050570;28;20048;-69
2022/01/18 06:35:17;;;;;;;303.70;43.20;;;1.10;99.90;;;;;;5050467;28;20056;-68
2022/01/18 06:38:22;;;;;;;69.68;28.15;;;1.10;99.90;;;;;;5049633;28;20051;-67
2022/01/18 06:41:27;;;;;;;203.07;37.50;;;1.00;99.90;;;;;;5050169;28;20060;-67
2022/01/18 06:44:31;;;;;;;51.78;28.35;;;0.90;99.90;;;;;;5054229;28;20040;-67
2022/01/18 06:47:37;;;;;;;65.00;34.78;;;0.90;99.90;;;;;;5053692;28;20130;-68
2022/01/18 06:50:41;;;;;;;70.90;38.20;;;1.00;99.90;;;;;;5051404;28;20506;-67
2022/01/18 06:53:47;;;;;;;67.50;36.15;;;1.10;99.90;;;;;;5052599;28;20055;-68
2022/01/18 06:56:51;;;;;;;391.90;57.63;;;1.10;99.90;;;;;;5055088;28;20044;-68
2022/01/18 06:59:55;;;;;;;61.63;33.50;;;1.10;99.90;;;;;;5050333;28;20044;-68
2022/01/18 07:02:59;;;;;;;68.30;34.70;;;1.10;99.90;;;;;;5051145;28;20040;-69
2022/01/18 07:06:05;;;;;;;61.65;33.10;;;1.10;99.90;;;;;;5051681;28;20052;-69
2022/01/18 07:09:10;;;;;;;63.00;33.85;;;1.10;99.90;;;;;;5048248;28;20503;-68
2022/01/18 07:12:15;;;;;;;63.03;35.55;;;1.20;99.90;;;;;;5047164;28;20383;-68
2022/01/18 07:15:19;;;;;;;69.43;38.30;;;1.40;99.90;;;;;;5051152;28;20384;-68
2022/01/18 07:18:25;;;;;;;52.40;30.60;;;3.00;99.90;;;;;;5036269;28;20052;-68
2022/01/18 07:21:30;;;;;;;39.20;23.75;;;4.90;99.90;;;;;;5052336;28;20048;-68
2022/01/18 07:24:41;;;;;;;41.33;21.35;;;6.80;99.90;;;;;;5048889;28;20036;-68
2022/01/18 07:27:46;;;;;;;28.83;18.40;;;8.50;99.90;;;;;;5045267;28;20040;-68
2022/01/18 07:30:50;;;;;;;31.13;18.52;;;10.50;99.90;;;;;;5052113;28;20040;-70
2022/01/18 07:33:55;;;;;;;29.25;17.23;;;12.40;99.90;;;;;;5052598;28;20577;-70
2022/01/18 07:36:59;;;;;;;27.67;15.80;;;12.30;99.90;;;;;;5051032;28;20040;-70
2022/01/18 07:40:05;;;;;;;22.73;14.00;;;12.80;99.90;;;;;;5049768;28;20064;-70
2022/01/18 07:43:15;;;;;;;23.52;14.30;;;14.30;99.90;;;;;;5045561;28;20048;-70
2022/01/18 07:46:21;;;;;;;20.27;14.10;;;15.50;99.90;;;;;;5053721;28;20044;-70
2022/01/18 07:49:26;;;;;;;22.70;15.57;;;16.90;99.20;;;;;;5057045;28;20052;-70
2022/01/18 07:52:32;;;;;;;17.75;13.82;;;17.70;96.20;;;;;;5057112;28;20044;-70
2022/01/18 07:55:37;;;;;;;21.95;13.80;;;18.20;94.70;;;;;;5057657;28;20048;-70
2022/01/18 07:58:41;;;;;;;18.60;13.13;;;18.20;94.50;;;;;;5054894;28;20391;-70
2022/01/18 08:01:48;;;;;;;17.80;13.05;;;18.70;93.20;;;;;;5053423;28;20044;-70
2022/01/18 08:04:52;;;;;;;18.27;13.50;;;19.50;93.30;;;;;;5054711;28;20506;-71
2022/01/18 08:07:56;;;;;;;18.90;13.20;;;19.90;91.70;;;;;;5053502;28;20123;-71
2022/01/18 08:11:02;;;;;;;18.45;13.32;;;20.30;91.20;;;;;;5055128;28;20044;-71
2022/01/18 08:14:06;;;;;;;16.88;13.45;;;20.60;90.10;;;;;;5052186;28;20385;-71
2022/01/18 08:17:10;;;;;;;17.25;13.00;;;21.10;89.80;;;;;;5053838;28;20506;-71
2022/01/18 08:20:15;;;;;;;17.05;14.27;;;21.30;84.60;;;;;;5051881;28;20032;-71
2022/01/18 08:23:19;;;;;;;16.48;13.52;;;17.90;85.80;;;;;;5053581;28;20048;-72
2022/01/18 08:26:23;;;;;;;15.65;13.32;;;16.90;90.30;;;;;;5056931;28;20047;-71
2022/01/18 08:29:28;;;;;;;15.90;12.77;;;18.70;88.60;;;;;;5032404;28;20396;-71
2022/01/18 08:32:32;;;;;;;17.95;12.65;;;20.30;87.50;;;;;;5033225;28;20400;-71
2022/01/18 08:35:37;;;;;;;14.50;12.40;;;21.50;84.60;;;;;;5035000;28;20048;-71
2022/01/18 08:38:41;;;;;;;15.43;12.05;;;22.10;81.70;;;;;;5033349;28;20053;-71
2022/01/18 08:41:46;;;;;;;18.10;12.27;;;23.00;82.70;;;;;;5034517;28;20527;-71
2022/01/18 08:44:52;;;;;;;14.90;12.32;;;23.80;79.30;;;;;;5036740;28;20040;-71
2022/01/18 08:47:57;;;;;;;15.10;11.70;;;24.80;78.10;;;;;;5054916;28;20036;-71
2022/01/18 08:51:01;;;;;;;15.80;11.55;;;25.00;76.80;;;;;;5053418;28;20060;-72
2022/01/18 08:54:08;;;;;;;13.20;11.40;;;25.70;75.30;;;;;;5054858;28;20483;-72
2022/01/18 08:57:14;;;;;;;13.95;10.90;;;26.50;72.60;;;;;;5053155;28;20044;-72
2022/01/18 09:00:19;;;;;;;14.93;11.70;;;26.70;71.30;;;;;;5041973;28;20499;-71
2022/01/18 09:03:23;;;;;;;15.82;11.75;;;26.60;72.00;;;;;;5053096;28;20036;-71
2022/01/18 09:06:29;;;;;;;12.15;10.95;;;27.30;70.40;;;;;;5053318;28;20040;-71
2022/01/18 09:09:39;;;;;;;14.00;12.52;;;23.80;67.80;;;;;;5051313;28;20044;-72
2022/01/18 09:12:43;;;;;;;13.73;12.30;;;20.80;71.40;;;;;;5052227;28;20048;-71
2022/01/18 09:15:52;;;;;;;13.25;11.35;;;21.80;73.20;;;;;;5054517;28;20068;-71
2022/01/18 09:18:57;;;;;;;14.57;11.73;;;24.30;72.20;;;;;;5051054;28;20394;-72
2022/01/18 09:22:03;;;;;;;14.07;12.35;;;23.60;68.40;;;;;;5045012;28;20091;-72
2022/01/18 09:25:11;;;;;;;15.43;13.82;;;19.90;71.50;;;;;;5052116;28;20048;-71
2022/01/18 09:28:16;;;;;;;18.05;15.27;;;18.40;76.20;;;;;;5027472;28;20039;-72
2022/01/18 09:31:21;;;;;;;17.95;15.85;;;20.10;75.70;;;;;;5052987;28;20048;-72
2022/01/18 09:34:25;;;;;;;20.05;14.75;;;20.70;73.50;;;;;;5052834;28;20391;-71
2022/01/18 09:37:30;;;;;;;16.20;14.38;;;18.70;75.40;;;;;;5064767;28;20694;-71
2022/01/18 09:40:38;;;;;;;15.45;13.82;;;19.70;75.90;;;;;;5045265;28;20036;-72
2022/01/18 09:43:42;;;;;;;17.05;15.13;;;20.20;74.80;;;;;;5072434;28;20043;-72
2022/01/18 09:46:51;;;;;;;15.88;12.90;;;21.20;73.80;;;;;;5046716;28;20048;-72
2022/01/18 09:49:57;;;;;;;16.50;13.15;;;23.20;73.10;;;;;;5031943;28;20048;-71
2022/01/18 09:53:05;;;;;;;15.60;13.93;;;23.10;71.10;;;;;;5036490;28;20037;-72
2022/01/18 09:56:09;;;;;;;14.95;13.35;;;23.60;70.20;;;;;;5032419;28;20052;-72
2022/01/18 09:59:13;;;;;;;14.23;12.82;;;23.40;69.70;;;;;;5043446;28;20051;-71
2022/01/18 10:02:19;;;;;;;14.82;12.85;;;21.50;71.90;;;;;;5049983;28;20044;-71
2022/01/18 10:05:32;;;;;;;14.27;12.38;;;22.50;72.10;;;;;;5048979;28;20045;-71
2022/01/18 10:08:39;;;;;;;15.88;13.32;;;25.10;69.90;;;;;;5052377;28;20040;-71
2022/01/18 10:12:15;;;;;;;18.40;13.57;;;26.10;68.20;;;;;;5038493;28;20386;-72
2022/01/18 10:15:19;;;;;;;14.98;12.80;;;24.60;68.30;;;;;;5049539;28;20498;-71
2022/01/18 10:18:52;;;;;;;15.05;13.45;;;23.90;69.40;;;;;;5050449;28;20048;-71
2022/01/18 10:22:17;;;;;;;16.50;12.77;;;20.30;73.00;;;;;;5034367;28;20117;-71
2022/01/18 10:25:26;;;;;;;18.52;13.93;;;23.20;71.60;;;;;;5050037;28;20036;-72
2022/01/18 10:28:33;;;;;;;13.57;12.15;;;22.80;71.70;;;;;;5031831;28;20049;-71
2022/01/18 10:31:55;;;;;;;14.45;13.05;;;24.50;69.40;;;;;;5031563;28;20060;-71
2022/01/18 10:35:05;;;;;;;13.85;12.45;;;26.30;68.20;;;;;;5041292;28;20348;-72
2022/01/18 10:38:18;;;;;;;13.32;11.88;;;26.50;67.40;;;;;;5049806;28;20494;-72
2022/01/18 10:41:28;;;;;;;16.10;14.50;;;27.00;66.20;;;;;;5041644;28;20495;-72
2022/01/18 10:44:34;;;;;;;16.08;14.38;;;22.00;69.10;;;;;;5046880;28;20396;-71
2022/01/18 10:47:50;;;;;;;16.98;13.68;;;21.10;72.60;;;;;;5049419;28;20051;-71
2022/01/18 10:50:54;;;;;;;15.07;13.48;;;22.20;72.90;;;;;;5052386;28;20056;-72
2022/01/18 10:54:03;;;;;;;14.90;12.65;;;24.00;71.30;;;;;;5052194;28;20060;-71
2022/01/18 10:57:11;;;;;;;14.50;13.02;;;25.70;68.90;;;;;;5051251;28;20411;-72
2022/01/18 11:00:23;;;;;;;16.92;12.90;;;24.70;68.80;;;;;;5054768;28;20036;-72
2022/01/18 11:03:27;;;;;;;13.27;11.20;;;25.10;69.60;;;;;;5051048;28;20071;-72
2022/01/18 11:06:31;;;;;;;12.70;11.35;;;25.40;69.70;;;;;;5049813;28;20044;-72
2022/01/18 11:09:36;;;;;;;13.60;11.35;;;27.70;67.50;;;;;;5051144;28;20048;-72
2022/01/18 11:12:56;;;;;;;13.30;10.88;;;29.30;66.30;;;;;;5051986;28;20411;-72
2022/01/18 11:16:04;;;;;;;14.73;11.55;;;27.70;65.50;;;;;;5050896;28;20059;-72
2022/01/18 11:19:28;;;;;;;14.75;11.15;;;26.00;66.10;;;;;;5052443;28;20107;-72
2022/01/18 11:22:33;;;;;;;14.13;11.30;;;25.80;66.80;;;;;;5054605;28;20039;-72
2022/01/18 11:25:38;;;;;;;11.88;10.55;;;26.30;67.60;;;;;;5056600;28;20072;-71
2022/01/18 11:28:42;;;;;;;11.93;10.57;;;27.40;66.50;;;;;;5053108;28;20052;-72
2022/01/18 11:31:53;;;;;;;14.52;11.85;;;27.80;65.50;;;;;;5054216;28;20071;-72
2022/01/18 11:35:15;;;;;;;13.13;10.95;;;26.40;66.70;;;;;;5034554;28;20408;-72
2022/01/18 11:38:27;;;;;;;12.50;10.55;;;24.30;68.70;;;;;;5033621;28;20044;-72
2022/01/18 11:41:35;;;;;;;13.48;11.98;;;25.40;67.80;;;;;;5050413;28;20048;-72
2022/01/18 11:44:40;;;;;;;17.65;15.00;;;22.80;71.10;;;;;;5047883;28;20032;-72
2022/01/18 11:48:00;;;;;;;19.17;15.85;;;21.60;74.70;;;;;;5054280;28;20072;-72
2022/01/18 11:51:06;;;;;;;20.20;15.70;;;20.50;74.40;;;;;;5053714;28;20044;-72
2022/01/18 11:57:48;;;;;;;19.73;15.88;;;22.50;74.50;;;;;;5042570;28;20043;-72
2022/01/18 12:00:55;;;;;;;20.80;14.63;;;22.50;72.70;;;;;;5054790;28;20044;-72
2022/01/18 12:04:00;;;;;;;17.60;14.95;;;24.70;71.10;;;;;;5053524;28;20226;-72
2022/01/18 12:07:05;;;;;;;20.10;14.30;;;26.40;69.60;;;;;;5054221;28;20048;-72
2022/01/18 12:10:31;;;;;;;14.75;12.63;;;25.80;67.70;;;;;;5052249;28;20048;-72
2022/01/18 12:13:41;;;;;;;16.30;13.65;;;28.50;67.10;;;;;;5053855;28;20036;-73
2022/01/18 12:16:49;;;;;;;15.13;13.20;;;29.90;64.30;;;;;;5033670;28;20052;-72
2022/01/18 12:19:53;;;;;;;15.23;12.20;;;29.50;63.90;;;;;;5037948;28;20492;-72
2022/01/18 12:23:02;;;;;;;18.58;12.32;;;28.60;63.10;;;;;;5052832;28;20403;-72
2022/01/18 12:32:56;;;;;;;57.00;44.17;;;26.10;66.60;;;;;;5041397;28;20048;-72
2022/01/18 12:36:25;;;;;;;32.83;24.25;;;26.90;65.90;;;;;;5053017;28;20474;-70
2022/01/18 12:39:33;;;;;;;18.20;14.50;;;26.60;66.20;;;;;;5050041;28;20387;-70
2022/01/18 12:45:48;;;;;;;24.05;19.13;;;25.60;68.20;;;;;;5053999;28;20040;-69
2022/01/18 12:48:59;;;;;;;28.10;22.83;;;24.90;67.70;;;;;;5048644;28;20055;-69
2022/01/18 12:52:04;;;;;;;36.45;28.55;;;27.10;66.90;;;;;;5055953;28;20115;-69
2022/01/18 12:55:26;;;;;;;26.88;20.80;;;24.90;66.00;;;;;;5052034;28;20040;-70
2022/01/18 12:58:41;;;;;;;14.63;11.45;;;25.20;67.10;;;;;;5050802;28;20048;-69
2022/01/18 13:01:50;;;;;;;17.15;13.55;;;27.50;63.70;;;;;;5049106;28;20349;-69
2022/01/18 13:04:56;;;;;;;11.55;8.70;;;28.60;63.50;;;;;;5049245;28;20048;-72
2022/01/18 13:08:01;;;;;;;13.25;9.10;;;29.80;61.10;;;;;;5051906;28;20048;-71
2022/01/18 13:11:05;;;;;;;12.85;8.85;;;29.80;59.60;;;;;;5049947;28;20052;-71
2022/01/18 13:14:12;;;;;;;10.95;8.23;;;30.00;60.90;;;;;;5032310;28;20061;-71
2022/01/18 13:28:00;;;;;;;10.77;8.30;;;29.70;57.70;;;;;;5045098;28;20052;-72
2022/01/18 13:31:23;;;;;;;16.00;10.73;;;29.30;57.60;;;;;;5050636;28;20043;-72
2022/01/18 13:34:36;;;;;;;10.98;8.20;;;28.50;58.60;;;;;;5051229;28;20400;-71
2022/01/18 13:37:40;;;;;;;10.38;7.40;;;28.10;58.00;;;;;;5049233;28;20073;-71
2022/01/18 13:40:47;;;;;;;9.88;7.95;;;27.40;59.20;;;;;;5050253;28;20052;-71
2022/01/18 13:43:54;;;;;;;11.30;7.53;;;23.90;61.60;;;;;;5056209;28;20060;-71
2022/01/18 13:47:19;;;;;;;12.73;6.22;;;23.70;61.50;;;;;;5047284;28;20064;-72
2022/01/18 13:50:31;;;;;;;12.27;6.72;;;24.20;61.50;;;;;;5047425;28;20043;-71
2022/01/18 13:53:36;;;;;;;7.50;4.68;;;25.50;61.10;;;;;;5050650;28;20036;-69
2022/01/18 13:56:47;;;;;;;27.58;24.55;;;26.90;57.60;;;;;;5050925;28;20047;-70
2022/01/18 13:59:52;;;;;;;7.88;5.47;;;26.50;56.40;;;;;;5050737;28;20048;-71
2022/01/18 14:02:56;;;;;;;7.43;5.30;;;25.80;58.10;;;;;;5051524;28;20040;-72
2022/01/18 14:06:01;;;;;;;8.57;5.78;;;26.20;58.10;;;;;;5050442;28;20032;-71
2022/01/18 14:09:08;;;;;;;5.82;3.97;;;26.30;56.40;;;;;;5051174;28;20387;-71
2022/01/18 14:12:17;;;;;;;5.20;3.47;;;26.30;55.00;;;;;;5051178;28;20059;-72
2022/01/18 14:15:42;;;;;;;4.85;3.40;;;26.70;54.10;;;;;;5047230;28;20044;-72
2022/01/18 14:19:01;;;;;;;4.88;3.40;;;27.10;54.40;;;;;;5049879;28;20128;-69
2022/01/18 14:22:17;;;;;;;7.13;4.90;;;27.30;53.00;;;;;;5045001;28;20044;-69
2022/01/18 14:25:30;;;;;;;8.05;5.50;;;26.80;55.20;;;;;;5049887;28;20040;-69
2022/01/18 14:28:34;;;;;;;9.02;6.75;;;26.80;55.10;;;;;;5050157;28;20044;-69
2022/01/18 14:31:38;;;;;;;8.65;6.80;;;26.50;56.00;;;;;;5050366;28;20051;-69
2022/01/18 14:34:48;;;;;;;5.63;4.10;;;26.80;56.00;;;;;;5039790;28;20048;-69
2022/01/18 14:38:07;;;;;;;6.38;4.13;;;27.00;54.10;;;;;;5049286;28;20051;-69
2022/01/18 14:41:20;;;;;;;7.13;4.10;;;26.80;54.90;;;;;;5049945;28;20059;-69
2022/01/18 14:44:47;;;;;;;4.97;3.25;;;26.60;55.10;;;;;;5049974;28;20052;-69
2022/01/18 14:47:51;;;;;;;5.38;3.65;;;26.70;53.60;;;;;;5034865;28;20395;-69
2022/01/18 14:50:56;;;;;;;7.15;4.18;;;26.40;53.20;;;;;;5050070;28;20079;-70
2022/01/18 14:54:01;;;;;;;6.45;4.00;;;26.00;54.00;;;;;;5050212;28;20060;-69
2022/01/18 14:57:05;;;;;;;6.20;4.20;;;25.80;54.90;;;;;;5049248;28;20061;-70
2022/01/18 15:00:12;;;;;;;9.63;7.50;;;25.00;52.50;;;;;;5049398;28;20040;-69
2022/01/18 15:03:16;;;;;;;8.30;6.30;;;24.60;55.10;;;;;;5049842;28;20044;-71
2022/01/18 15:06:20;;;;;;;9.35;6.45;;;23.20;58.60;;;;;;5048765;28;20387;-72
2022/01/18 15:09:28;;;;;;;9.75;6.95;;;21.60;62.20;;;;;;5047180;28;20044;-71
2022/01/18 15:12:41;;;;;;;11.43;7.95;;;21.00;63.80;;;;;;5049350;28;20498;-72
2022/01/18 15:15:47;;;;;;;13.00;7.25;;;21.30;64.20;;;;;;5049288;28;20068;-71
2022/01/18 15:18:52;;;;;;;10.60;6.20;;;21.40;64.40;;;;;;5048964;28;20065;-71
2022/01/18 15:21:57;;;;;;;10.55;6.63;;;21.50;64.40;;;;;;5049446;28;20306;-71
2022/01/18 15:25:01;;;;;;;8.98;6.15;;;20.60;64.90;;;;;;5048333;28;20063;-71
2022/01/18 15:28:05;;;;;;;11.73;7.53;;;20.30;65.60;;;;;;5049255;28;20044;-71
2022/01/18 15:31:10;;;;;;;12.90;7.22;;;20.20;67.50;;;;;;5049357;28;20051;-71
2022/01/18 15:34:14;;;;;;;12.70;6.80;;;20.10;67.90;;;;;;5049246;28;20080;-71
2022/01/18 15:37:18;;;;;;;13.77;8.63;;;20.00;67.80;;;;;;5048085;28;20353;-71
2022/01/18 15:40:23;;;;;;;11.90;7.00;;;19.80;69.60;;;;;;5049535;28;20056;-71
2022/01/18 15:43:27;;;;;;;11.38;7.05;;;19.40;69.30;;;;;;5049923;28;20383;-70
2022/01/18 15:46:31;;;;;;;13.27;7.00;;;19.20;69.10;;;;;;5039887;28;20044;-70
2022/01/18 15:49:36;;;;;;;12.15;7.72;;;18.80;70.40;;;;;;5048403;28;20059;-70
2022/01/18 15:52:41;;;;;;;11.35;7.45;;;18.40;72.00;;;;;;5050368;28;20062;-70
2022/01/18 15:55:47;;;;;;;13.15;8.18;;;17.90;71.90;;;;;;5047640;28;20392;-70
2022/01/18 15:58:53;;;;;;;20.50;11.68;;;17.20;72.60;;;;;;5049474;28;20064;-70
2022/01/18 16:01:58;;;;;;;19.13;11.02;;;16.20;74.20;;;;;;5046776;28;20072;-70
2022/01/18 16:05:03;;;;;;;24.38;16.63;;;15.10;75.10;;;;;;5039064;28;20590;-69
2022/01/18 16:08:07;;;;;;;33.63;20.60;;;14.10;76.00;;;;;;5034330;28;20502;-69
2022/01/18 16:11:14;;;;;;;34.88;19.35;;;13.40;77.40;;;;;;5052750;28;20123;-69
2022/01/18 16:14:19;;;;;;;25.35;16.15;;;12.70;79.50;;;;;;5033695;28;20396;-70
2022/01/18 16:17:23;;;;;;;30.65;16.73;;;12.20;81.50;;;;;;5033331;28;20064;-70
2022/01/18 16:20:27;;;;;;;25.23;15.63;;;11.70;82.70;;;;;;5033814;28;20044;-69
2022/01/18 16:23:31;;;;;;;28.38;18.00;;;11.40;83.70;;;;;;5032809;28;20487;-69
2022/01/18 16:26:36;;;;;;;24.33;12.63;;;11.10;83.70;;;;;;5034704;28;20044;-69
2022/01/18 16:29:40;;;;;;;29.90;14.73;;;10.80;83.60;;;;;;5032459;28;20064;-69
2022/01/18 16:32:45;;;;;;;42.63;24.95;;;10.60;84.50;;;;;;5032815;28;20052;-70
2022/01/18 16:35:50;;;;;;;72.68;47.33;;;10.50;85.70;;;;;;5033038;28;20495;-69
2022/01/18 16:38:54;;;;;;;26.05;16.60;;;10.30;86.50;;;;;;5032647;28;20056;-69
2022/01/18 16:41:58;;;;;;;18.38;12.02;;;10.10;87.30;;;;;;5032725;28;20044;-69
2022/01/18 16:45:03;;;;;;;19.40;12.65;;;10.00;88.20;;;;;;5032632;28;20330;-69
2022/01/18 16:48:07;;;;;;;16.85;11.55;;;9.80;89.10;;;;;;5031657;28;20044;-69
2022/01/18 16:51:12;;;;;;;26.90;17.20;;;9.70;89.70;;;;;;5032729;28;20392;-69
2022/01/18 16:54:16;;;;;;;19.55;13.18;;;9.70;90.00;;;;;;5032844;28;20068;-69
2022/01/18 16:57:20;;;;;;;28.65;18.05;;;9.60;90.30;;;;;;5032710;28;20045;-69
2022/01/18 17:00:24;;;;;;;22.55;14.23;;;9.60;90.60;;;;;;5032155;28;20507;-69
2022/01/18 17:03:28;;;;;;;26.58;15.48;;;9.50;90.50;;;;;;5032519;28;20048;-69
2022/01/18 17:06:34;;;;;;;25.33;15.75;;;9.50;90.40;;;;;;5032344;28;20068;-69
2022/01/18 17:09:38;;;;;;;26.95;14.75;;;9.40;90.20;;;;;;5032020;28;20056;-69
2022/01/18 17:12:42;;;;;;;34.05;20.42;;;9.40;90.00;;;;;;5034325;28;20068;-69
2022/01/18 17:15:46;;;;;;;48.30;25.02;;;9.40;90.00;;;;;;5032527;28;20515;-69
2022/01/18 17:18:50;;;;;;;29.65;15.40;;;9.30;89.60;;;;;;5031252;28;20053;-69
2022/01/18 17:21:54;;;;;;;18.95;11.88;;;9.30;89.60;;;;;;5034416;28;20043;-69